createdAt,value
2019-01-04T00:00:32.047Z,102943.00
2019-01-04T00:03:01.826Z,102954.00
2019-01-04T00:05:31.264Z,102947.00
2019-01-04T00:08:00.630Z,102947.00
2019-01-04T00:10:30.014Z,102942.00
2019-01-04T00:12:59.380Z,102940.00
2019-01-04T00:15:30.097Z,102928.00
2019-01-04T00:17:59.452Z,102935.00
2019-01-04T00:20:28.814Z,102933.00
2019-01-04T00:22:58.178Z,102937.00
2019-01-04T00:25:27.890Z,102928.00
2019-01-04T00:27:57.249Z,102936.00
2019-01-04T00:30:26.620Z,102935.00
2019-01-04T00:32:56.009Z,102929.00
2019-01-04T00:35:25.656Z,102938.00
2019-01-04T00:37:55.026Z,102932.00
2019-01-04T00:40:24.594Z,102938.00
2019-01-04T00:42:53.966Z,102938.00
2019-01-04T00:45:23.346Z,102940.00
2019-01-04T00:47:53.028Z,102930.00
2019-01-04T00:50:22.407Z,102925.00
2019-01-04T00:52:51.787Z,102921.00
2019-01-04T00:55:49.847Z,102922.00
2019-01-04T00:58:45.010Z,102912.00
2019-01-04T01:01:36.589Z,102916.00
2019-01-04T01:04:38.892Z,102921.00
2019-01-04T01:07:47.570Z,102928.00
2019-01-04T01:10:48.097Z,102929.00
2019-01-04T01:13:58.334Z,102931.00
2019-01-04T01:16:52.906Z,102930.00
2019-01-04T01:19:42.607Z,102934.00
2019-01-04T01:22:36.900Z,102917.00
2019-01-04T01:25:35.874Z,102926.00
2019-01-04T01:28:44.570Z,102929.00
2019-01-04T01:31:18.573Z,102918.00
2019-01-04T01:34:13.628Z,102925.00
2019-01-04T01:36:56.142Z,102930.00
2019-01-04T01:40:09.486Z,102920.00
2019-01-04T01:42:55.868Z,102922.00
2019-01-04T01:46:04.396Z,102909.00
2019-01-04T01:48:38.408Z,102904.00
2019-01-04T01:51:36.628Z,102911.00
2019-01-04T01:54:08.697Z,102905.00
2019-01-04T01:56:38.069Z,102904.00
2019-01-04T01:59:07.452Z,102904.00
2019-01-04T02:01:37.167Z,102909.00
2019-01-04T02:04:06.527Z,102896.00
2019-01-04T02:06:35.896Z,102888.00
2019-01-04T02:09:07.858Z,102899.00
2019-01-04T02:11:37.230Z,102896.00
2019-01-04T02:14:06.603Z,102898.00
2019-01-04T02:16:36.004Z,102885.00
2019-01-04T02:19:05.610Z,102877.00
2019-01-04T02:21:35.013Z,102868.00
2019-01-04T02:24:04.578Z,102866.00
2019-01-04T02:26:33.952Z,102859.00
2019-01-04T02:29:03.313Z,102861.00
2019-01-04T02:31:32.697Z,102860.00
2019-01-04T02:34:02.065Z,102865.00
2019-01-04T02:36:31.851Z,102863.00
2019-01-04T02:39:01.228Z,102859.00
2019-01-04T02:41:30.610Z,102856.00
2019-01-04T02:43:59.967Z,102858.00
2019-01-04T02:46:29.387Z,102847.00
2019-01-04T02:48:58.762Z,102844.00
2019-01-04T02:51:28.141Z,102836.00
2019-01-04T02:53:57.562Z,102830.00
2019-01-04T02:56:26.934Z,102828.00
2019-01-04T02:58:56.299Z,102827.00
2019-01-04T03:01:25.708Z,102827.00
2019-01-04T03:03:55.073Z,102840.00
2019-01-04T03:06:24.449Z,102834.00
2019-01-04T03:08:54.113Z,102820.00
2019-01-04T03:11:23.490Z,102811.00
2019-01-04T03:13:52.856Z,102818.00
2019-01-04T03:16:22.272Z,102820.00
2019-01-04T03:18:51.653Z,102806.00
2019-01-04T03:21:21.386Z,102807.00
2019-01-04T03:23:50.798Z,102808.00
2019-01-04T03:26:20.155Z,102797.00
2019-01-04T03:28:49.531Z,102786.00
2019-01-04T03:31:19.348Z,102789.00
2019-01-04T03:33:48.708Z,102786.00
2019-01-04T03:36:18.079Z,102781.00
2019-01-04T03:38:47.448Z,102780.00
2019-01-04T03:41:16.820Z,102774.00
2019-01-04T03:43:46.195Z,102774.00
2019-01-04T03:46:15.610Z,102765.00
2019-01-04T03:48:44.967Z,102740.00
2019-01-04T03:51:14.340Z,102749.00
2019-01-04T03:53:43.973Z,102740.00
2019-01-04T03:56:13.342Z,102737.00
2019-01-04T03:58:42.721Z,102728.00
2019-01-04T04:01:12.106Z,102731.00
2019-01-04T04:03:41.493Z,102726.00
2019-01-04T04:06:10.858Z,102717.00
2019-01-04T04:08:40.255Z,102717.00
2019-01-04T04:11:09.622Z,102713.00
2019-01-04T04:13:38.994Z,102724.00
2019-01-04T04:16:08.606Z,102715.00
2019-01-04T04:18:37.946Z,102707.00
2019-01-04T04:21:07.316Z,102704.00
2019-01-04T04:23:37.045Z,102698.00
2019-01-04T04:26:06.415Z,102695.00
2019-01-04T04:28:35.786Z,102694.00
2019-01-04T04:31:05.165Z,102694.00
2019-01-04T04:33:34.536Z,102702.00
2019-01-04T04:36:04.190Z,102709.00
2019-01-04T04:38:33.843Z,102713.00
2019-01-04T04:41:03.217Z,102702.00
2019-01-04T04:43:32.593Z,102689.00
2019-01-04T04:46:02.001Z,102687.00
2019-01-04T04:48:31.715Z,102687.00
2019-01-04T04:51:01.094Z,102683.00
2019-01-04T04:53:30.476Z,102687.00
2019-01-04T04:55:59.892Z,102684.00
2019-01-04T04:58:29.274Z,102694.00
2019-01-04T05:00:58.684Z,102687.00
2019-01-04T05:03:28.375Z,102678.00
2019-01-04T05:05:57.812Z,102679.00
2019-01-04T05:08:27.216Z,102676.00
2019-01-04T05:10:56.623Z,102678.00
2019-01-04T05:13:26.009Z,102682.00
2019-01-04T05:15:55.369Z,102682.00
2019-01-04T05:18:24.737Z,102682.00
2019-01-04T05:20:54.135Z,102676.00
2019-01-04T05:23:23.818Z,102674.00
2019-01-04T05:25:53.235Z,102673.00
2019-01-04T05:28:22.604Z,102682.00
2019-01-04T05:30:52.023Z,102694.00
2019-01-04T05:33:21.415Z,102687.00
2019-01-04T05:35:50.806Z,102683.00
2019-01-04T05:38:20.197Z,102673.00
2019-01-04T05:40:49.586Z,102651.00
2019-01-04T05:43:18.960Z,102633.00
2019-01-04T05:45:48.752Z,102625.00
2019-01-04T05:48:18.125Z,102638.00
2019-01-04T05:50:47.504Z,102632.00
2019-01-04T05:53:16.888Z,102619.00
2019-01-04T05:55:46.354Z,102625.00
2019-01-04T05:58:15.731Z,102619.00
2019-01-04T06:00:45.140Z,102617.00
2019-01-04T06:03:14.522Z,102612.00
2019-01-04T06:05:43.907Z,102626.00
2019-01-04T06:08:13.888Z,102625.00
2019-01-04T06:10:43.270Z,102623.00
2019-01-04T06:13:12.752Z,102628.00
2019-01-04T06:15:42.149Z,102621.00
2019-01-04T06:18:11.522Z,102601.00
2019-01-04T06:20:40.935Z,102605.00
2019-01-04T06:23:10.305Z,102602.00
2019-01-04T06:25:39.693Z,102597.00
2019-01-04T06:28:09.188Z,102595.00
2019-01-04T06:30:38.822Z,102588.00
2019-01-04T06:33:08.202Z,102604.00
2019-01-04T06:35:37.600Z,102605.00
2019-01-04T06:38:07.021Z,102605.00
2019-01-04T06:40:36.378Z,102603.00
2019-01-04T06:43:05.758Z,102599.00
2019-01-04T06:45:35.186Z,102582.00
2019-01-04T06:48:04.559Z,102587.00
2019-01-04T06:50:33.926Z,102581.00
2019-01-04T06:53:03.684Z,102573.00
2019-01-04T06:55:49.046Z,102577.00
2019-01-04T06:58:18.435Z,102584.00
2019-01-04T07:00:47.807Z,102572.00
2019-01-04T07:03:17.207Z,102564.00
2019-01-04T07:05:46.610Z,102565.00
2019-01-04T07:08:15.996Z,102582.00
2019-01-04T07:10:45.370Z,102569.00
2019-01-04T07:13:15.369Z,102581.00
2019-01-04T07:15:44.749Z,102562.00
2019-01-04T07:18:14.124Z,102555.00
2019-01-04T07:20:43.533Z,102557.00
2019-01-04T07:23:12.904Z,102551.00
2019-01-04T07:25:42.281Z,102540.00
2019-01-04T07:28:11.944Z,102549.00
2019-01-04T07:30:41.322Z,102551.00
2019-01-04T07:33:10.703Z,102559.00
2019-01-04T07:35:40.304Z,102547.00
2019-01-04T07:38:09.964Z,102549.00
2019-01-04T07:40:39.351Z,102545.00
2019-01-04T07:43:08.743Z,102554.00
2019-01-04T07:45:38.387Z,102558.00
2019-01-04T07:48:07.759Z,102549.00
2019-01-04T07:50:37.168Z,102529.00
2019-01-04T07:53:06.546Z,102528.00
2019-01-04T07:55:35.924Z,102526.00
2019-01-04T07:58:05.631Z,102533.00
2019-01-04T08:00:35.008Z,102510.00
2019-01-04T08:03:05.282Z,102514.00
2019-01-04T08:05:34.671Z,102510.00
2019-01-04T08:08:04.049Z,102511.00
2019-01-04T08:10:33.449Z,102507.00
2019-01-04T08:13:02.843Z,102505.00
2019-01-04T08:15:32.235Z,102495.00
2019-01-04T08:18:01.596Z,102498.00
2019-01-04T08:20:31.600Z,102502.00
2019-01-04T08:23:00.984Z,102498.00
2019-01-04T08:25:30.470Z,102487.00
2019-01-04T08:27:59.864Z,102481.00
2019-01-04T08:30:29.256Z,102482.00
2019-01-04T08:32:58.841Z,102477.00
2019-01-04T08:35:28.232Z,102473.00
2019-01-04T08:37:57.607Z,102480.00
2019-01-04T08:40:26.991Z,102478.00
2019-01-04T08:42:56.551Z,102482.00
2019-01-04T08:45:25.917Z,102467.00
2019-01-04T08:47:55.310Z,102467.00
2019-01-04T08:50:24.699Z,102473.00
2019-01-04T08:52:54.064Z,102470.00
2019-01-04T08:55:23.441Z,102462.00
2019-01-04T08:57:52.824Z,102471.00
2019-01-04T09:00:22.204Z,102459.00
2019-01-04T09:02:52.592Z,102455.00
2019-01-04T09:05:22.430Z,102443.00
2019-01-04T09:07:51.816Z,102443.00
2019-01-04T09:10:21.202Z,102436.00
2019-01-04T09:12:50.587Z,102439.00
2019-01-04T09:15:19.957Z,102432.00
2019-01-04T09:17:49.327Z,102425.00
2019-01-04T09:20:18.726Z,102422.00
2019-01-04T09:22:48.117Z,102417.00
2019-01-04T09:25:17.729Z,102413.00
2019-01-04T09:27:47.630Z,102414.00
2019-01-04T09:30:17.020Z,102414.00
2019-01-04T09:32:46.411Z,102407.00
2019-01-04T09:35:15.943Z,102412.00
2019-01-04T09:37:45.306Z,102390.00
2019-01-04T09:40:14.743Z,102396.00
2019-01-04T09:42:44.419Z,102383.00
2019-01-04T09:45:13.789Z,102376.00
2019-01-04T09:47:43.157Z,102384.00
2019-01-04T09:50:13.134Z,102372.00
2019-01-04T09:52:42.457Z,102362.00
2019-01-04T09:55:11.848Z,102360.00
2019-01-04T09:57:41.228Z,102353.00
2019-01-04T10:00:11.373Z,102339.00
2019-01-04T10:02:40.751Z,102351.00
2019-01-04T10:05:10.141Z,102345.00
2019-01-04T10:07:39.538Z,102335.00
2019-01-04T10:10:11.045Z,102323.00
2019-01-04T10:12:40.771Z,102330.00
2019-01-04T10:15:15.526Z,102316.00
2019-01-04T10:17:44.899Z,102317.00
2019-01-04T10:20:14.302Z,102322.00
2019-01-04T10:22:43.683Z,102310.00
2019-01-04T10:25:13.124Z,102316.00
2019-01-04T10:27:42.831Z,102289.00
2019-01-04T10:30:25.307Z,102286.00
2019-01-04T10:32:54.693Z,102283.00
2019-01-04T10:35:24.076Z,102258.00
2019-01-04T10:37:53.481Z,102257.00
2019-01-04T10:40:22.871Z,102253.00
2019-01-04T10:42:52.310Z,102252.00
2019-01-04T10:45:21.693Z,102235.00
2019-01-04T10:47:51.476Z,102223.00
2019-01-04T10:50:20.854Z,102207.00
2019-01-04T10:52:56.140Z,102200.00
2019-01-04T10:55:25.540Z,102197.00
2019-01-04T10:57:54.908Z,102195.00
2019-01-04T11:00:24.279Z,102198.00
2019-01-04T11:02:53.931Z,102186.00
2019-01-04T11:05:23.308Z,102187.00
2019-01-04T11:07:52.717Z,102160.00
2019-01-04T11:10:22.106Z,102169.00
2019-01-04T11:12:51.480Z,102177.00
2019-01-04T11:15:21.205Z,102157.00
2019-01-04T11:17:50.590Z,102148.00
2019-01-04T11:20:41.462Z,102148.00
2019-01-04T11:23:38.198Z,102139.00
2019-01-04T11:26:17.953Z,102133.00
2019-01-04T11:29:12.925Z,102126.00
2019-01-04T11:32:06.489Z,102122.00
2019-01-04T11:34:46.062Z,102114.00
2019-01-04T11:37:28.996Z,102098.00
2019-01-04T11:40:20.405Z,102086.00
2019-01-04T11:43:15.219Z,102066.00
2019-01-04T11:46:10.132Z,102064.00
2019-01-04T11:49:04.765Z,102047.00
2019-01-04T11:51:44.658Z,102044.00
2019-01-04T11:54:14.025Z,102041.00
2019-01-04T11:56:43.402Z,102038.00
2019-01-04T11:59:13.161Z,102035.00
2019-01-04T12:01:42.540Z,102033.00
2019-01-04T12:04:11.907Z,102023.00
2019-01-04T12:06:41.338Z,102012.00
2019-01-04T12:09:10.879Z,102014.00
2019-01-04T12:11:40.257Z,102017.00
2019-01-04T12:14:12.708Z,102020.00
2019-01-04T12:16:42.074Z,102032.00
2019-01-04T12:19:11.468Z,102028.00
2019-01-04T12:21:41.166Z,102043.00
2019-01-04T12:24:10.526Z,102046.00
2019-01-04T12:26:39.903Z,102053.00
2019-01-04T12:29:09.280Z,102043.00
2019-01-04T12:31:38.651Z,102039.00
2019-01-04T12:34:08.019Z,102044.00
2019-01-04T12:36:37.660Z,102043.00
2019-01-04T12:39:08.339Z,102045.00
2019-01-04T12:41:37.733Z,102045.00
2019-01-04T12:44:07.192Z,102025.00
2019-01-04T12:46:36.565Z,102039.00
2019-01-04T12:49:05.942Z,102039.00
2019-01-04T12:51:35.334Z,102043.00
2019-01-04T12:54:04.693Z,102038.00
2019-01-04T12:56:34.064Z,102032.00
2019-01-04T12:59:03.458Z,102022.00
2019-01-04T13:01:32.843Z,102032.00
2019-01-04T13:04:02.201Z,102038.00
2019-01-04T13:06:32.165Z,102045.00
2019-01-04T13:09:01.551Z,102036.00
2019-01-04T13:11:30.922Z,102033.00
2019-01-04T13:14:00.318Z,102027.00
2019-01-04T13:16:29.687Z,102039.00
2019-01-04T13:19:00.080Z,102031.00
2019-01-04T13:21:29.484Z,102037.00
2019-01-04T13:23:58.865Z,102020.00
2019-01-04T13:26:28.261Z,102019.00
2019-01-04T13:28:57.919Z,102014.00
2019-01-04T13:31:27.296Z,102004.00
2019-01-04T13:33:56.668Z,102012.00
2019-01-04T13:36:26.057Z,102006.00
2019-01-04T13:38:55.430Z,101994.00
2019-01-04T13:41:24.837Z,102001.00
2019-01-04T13:43:54.662Z,101991.00
2019-01-04T13:46:24.029Z,101983.00
2019-01-04T13:48:53.399Z,101985.00
2019-01-04T13:51:23.162Z,101986.00
2019-01-04T13:53:52.537Z,101991.00
2019-01-04T13:56:21.909Z,101988.00
2019-01-04T13:58:51.295Z,101978.00
2019-01-04T14:01:20.665Z,101977.00
2019-01-04T14:03:50.049Z,101971.00
2019-01-04T14:06:19.449Z,101964.00
2019-01-04T14:08:49.079Z,101963.00
2019-01-04T14:11:19.323Z,101951.00
2019-01-04T14:13:49.381Z,101955.00
2019-01-04T14:16:18.764Z,101947.00
2019-01-04T14:18:48.130Z,101942.00
2019-01-04T14:21:17.513Z,101955.00
2019-01-04T14:23:46.880Z,101970.00
2019-01-04T14:26:16.249Z,101970.00
2019-01-04T14:28:45.653Z,101968.00
2019-01-04T14:31:15.021Z,101969.00
2019-01-04T14:33:44.420Z,101959.00
2019-01-04T14:36:14.148Z,101955.00
2019-01-04T14:38:43.528Z,101963.00
2019-01-04T14:41:12.905Z,101958.00
2019-01-04T14:43:42.292Z,101949.00
2019-01-04T14:46:11.864Z,101948.00
2019-01-04T14:48:41.234Z,101951.00
2019-01-04T14:51:10.628Z,101937.00
2019-01-04T14:53:39.999Z,101923.00
2019-01-04T14:56:09.372Z,101926.00
2019-01-04T14:58:38.773Z,101916.00
2019-01-04T15:01:08.148Z,101911.00
2019-01-04T15:03:37.523Z,101910.00
2019-01-04T15:06:06.923Z,101911.00
2019-01-04T15:08:36.304Z,101909.00
2019-01-04T15:11:05.689Z,101910.00
2019-01-04T15:13:35.099Z,101931.00
2019-01-04T15:16:04.489Z,101938.00
2019-01-04T15:18:33.855Z,101941.00
2019-01-04T15:21:03.707Z,101934.00
2019-01-04T15:23:33.090Z,101929.00
2019-01-04T15:26:02.475Z,101920.00
2019-01-04T15:28:31.950Z,101910.00
2019-01-04T15:31:01.328Z,101905.00
2019-01-04T15:33:30.724Z,101910.00
2019-01-04T15:36:00.139Z,101915.00
2019-01-04T15:38:29.492Z,101911.00
2019-01-04T15:40:58.869Z,101905.00
2019-01-04T15:43:28.313Z,101912.00
2019-01-04T15:45:57.691Z,101911.00
2019-01-04T15:48:27.346Z,101915.00
2019-01-04T15:50:56.748Z,101915.00
2019-01-04T15:53:26.129Z,101913.00
2019-01-04T15:55:55.509Z,101911.00
2019-01-04T15:58:24.959Z,101911.00
2019-01-04T16:00:54.336Z,101906.00
2019-01-04T16:03:23.709Z,101904.00
2019-01-04T16:05:53.127Z,101904.00
2019-01-04T16:08:22.497Z,101910.00
2019-01-04T16:10:51.877Z,101906.00
2019-01-04T16:13:21.256Z,101904.00
2019-01-04T16:15:50.632Z,101897.00
2019-01-04T16:18:20.007Z,101892.00
2019-01-04T16:20:49.744Z,101895.00
2019-01-04T16:23:19.121Z,101902.00
2019-01-04T16:25:48.503Z,101901.00
2019-01-04T16:28:18.407Z,101902.00
2019-01-04T16:30:47.780Z,101888.00
2019-01-04T16:33:17.159Z,101883.00
2019-01-04T16:35:46.648Z,101894.00
2019-01-04T16:38:16.018Z,101885.00
2019-01-04T16:40:45.411Z,101890.00
2019-01-04T16:43:14.801Z,101898.00
2019-01-04T16:45:44.850Z,101893.00
2019-01-04T16:48:14.300Z,101886.00
2019-01-04T16:50:44.216Z,101884.00
2019-01-04T16:53:13.597Z,101882.00
2019-01-04T16:55:43.348Z,101876.00
2019-01-04T16:58:12.736Z,101882.00
2019-01-04T17:00:42.116Z,101882.00
2019-01-04T17:03:11.484Z,101893.00
2019-01-04T17:05:40.895Z,101887.00
2019-01-04T17:08:10.272Z,101894.00
2019-01-04T17:10:39.660Z,101888.00
2019-01-04T17:13:09.320Z,101893.00
2019-01-04T17:15:38.700Z,101895.00
2019-01-04T17:18:08.075Z,101903.00
2019-01-04T17:20:37.476Z,101901.00
2019-01-04T17:23:06.846Z,101898.00
2019-01-04T17:25:36.225Z,101897.00
2019-01-04T17:28:05.624Z,101904.00
2019-01-04T17:30:35.043Z,101911.00
2019-01-04T17:33:04.422Z,101908.00
2019-01-04T17:35:34.044Z,101900.00
2019-01-04T17:38:03.480Z,101904.00
2019-01-04T17:40:32.856Z,101905.00
2019-01-04T17:43:02.263Z,101916.00
2019-01-04T17:45:31.635Z,101920.00
2019-01-04T17:48:01.007Z,101910.00
2019-01-04T17:50:30.409Z,101912.00
2019-01-04T17:53:00.954Z,101911.00
2019-01-04T17:55:30.334Z,101910.00
2019-01-04T17:57:59.742Z,101906.00
2019-01-04T18:00:29.137Z,101910.00
2019-01-04T18:03:00.891Z,101900.00
2019-01-04T18:05:29.651Z,101902.00
2019-01-04T18:07:59.017Z,101908.00
2019-01-04T18:10:28.397Z,101904.00
2019-01-04T18:12:57.803Z,101915.00
2019-01-04T18:15:27.191Z,101916.00
2019-01-04T18:17:58.701Z,101922.00
2019-01-04T18:20:27.720Z,101920.00
2019-01-04T18:22:57.098Z,101928.00
2019-01-04T18:25:26.485Z,101915.00
2019-01-04T18:27:55.875Z,101917.00
2019-01-04T18:30:25.254Z,101900.00
2019-01-04T18:32:54.636Z,101910.00
2019-01-04T18:35:24.014Z,101906.00
2019-01-04T18:37:53.393Z,101893.00
2019-01-04T18:40:22.788Z,101901.00
2019-01-04T18:42:52.511Z,101892.00
2019-01-04T18:45:21.889Z,101903.00
2019-01-04T18:47:51.267Z,101891.00
2019-01-04T18:50:21.742Z,101891.00
2019-01-04T18:52:51.420Z,101891.00
2019-01-04T18:55:21.336Z,101893.00
2019-01-04T18:57:50.752Z,101904.00
2019-01-04T19:00:20.129Z,101894.00
2019-01-04T19:02:49.533Z,101888.00
2019-01-04T19:05:18.934Z,101894.00
2019-01-04T19:07:48.314Z,101894.00
2019-01-04T19:10:17.697Z,101902.00
2019-01-04T19:12:47.088Z,101899.00
2019-01-04T19:15:16.474Z,101895.00
2019-01-04T19:17:45.847Z,101894.00
2019-01-04T19:20:15.256Z,101891.00
2019-01-04T19:22:44.632Z,101882.00
2019-01-04T19:25:14.008Z,101883.00
2019-01-04T19:27:43.454Z,101874.00
2019-01-04T19:30:12.827Z,101870.00
2019-01-04T19:32:42.201Z,101872.00
2019-01-04T19:35:11.599Z,101861.00
2019-01-04T19:37:40.980Z,101858.00
2019-01-04T19:40:10.352Z,101863.00
2019-01-04T19:42:39.745Z,101856.00
2019-01-04T19:45:09.192Z,101852.00
2019-01-04T19:47:38.567Z,101852.00
2019-01-04T19:50:19.086Z,101842.00
2019-01-04T19:52:48.461Z,101830.00
2019-01-04T19:55:17.834Z,101836.00
2019-01-04T19:57:47.539Z,101828.00
2019-01-04T20:00:16.982Z,101823.00
2019-01-04T20:02:46.348Z,101822.00
2019-01-04T20:05:16.075Z,101824.00
2019-01-04T20:08:08.798Z,101817.00
2019-01-04T20:11:33.584Z,101818.00
2019-01-04T20:15:08.269Z,101800.00
2019-01-04T20:17:48.460Z,101803.00
2019-01-04T20:20:22.542Z,101799.00
2019-01-04T20:22:56.211Z,101787.00
2019-01-04T20:25:32.995Z,101794.00
2019-01-04T20:28:20.414Z,101784.00
2019-01-04T20:30:51.698Z,101787.00
2019-01-04T20:33:37.657Z,101772.00
2019-01-04T20:36:20.823Z,101763.00
2019-01-04T20:39:08.328Z,101778.00
2019-01-04T20:41:55.143Z,101772.00
2019-01-04T20:44:41.503Z,101765.00
2019-01-04T20:47:19.870Z,101762.00
2019-01-04T20:50:02.664Z,101760.00
2019-01-04T20:52:50.102Z,101746.00
2019-01-04T20:55:23.851Z,101745.00
2019-01-04T20:58:10.943Z,101739.00
2019-01-04T21:00:48.086Z,101737.00
2019-01-04T21:03:28.323Z,101750.00
2019-01-04T21:06:15.373Z,101746.00
2019-01-04T21:08:46.383Z,101736.00
2019-01-04T21:11:23.609Z,101740.00
2019-01-04T21:14:03.820Z,101737.00
2019-01-04T21:16:41.101Z,101743.00
2019-01-04T21:19:18.472Z,101736.00
2019-01-04T21:22:07.519Z,101744.00
2019-01-04T21:24:55.346Z,101740.00
2019-01-04T21:27:32.444Z,101736.00
2019-01-04T21:30:06.451Z,101740.00
2019-01-04T21:32:52.501Z,101734.00
2019-01-04T21:35:41.993Z,101741.00
2019-01-04T21:38:13.019Z,101734.00
2019-01-04T21:40:53.178Z,101732.00
2019-01-04T21:43:33.071Z,101733.00
2019-01-04T21:46:12.942Z,101722.00
2019-01-04T21:49:00.568Z,101711.00
2019-01-04T21:51:47.847Z,101720.00
2019-01-04T21:54:33.884Z,101712.00
2019-01-04T21:57:04.930Z,101713.00
2019-01-04T21:59:35.939Z,101716.00
2019-01-04T22:02:07.215Z,101696.00
2019-01-04T22:04:50.190Z,101696.00
2019-01-04T22:07:36.502Z,101683.00
2019-01-04T22:10:26.188Z,101690.00
2019-01-04T22:13:00.006Z,101673.00
2019-01-04T22:15:33.669Z,101673.00
2019-01-04T22:18:19.718Z,101681.00
2019-01-04T22:20:59.629Z,101688.00
2019-01-04T22:23:40.619Z,101682.00
2019-01-04T22:26:20.122Z,101679.00
2019-01-04T22:29:03.360Z,101679.00
2019-01-04T22:31:34.369Z,101674.00
2019-01-04T22:34:21.635Z,101657.00
2019-01-04T22:36:52.645Z,101658.00
2019-01-04T22:39:36.287Z,101649.00
2019-01-04T22:42:25.361Z,101657.00
2019-01-04T22:45:05.162Z,101633.00
2019-01-04T22:47:38.834Z,101638.00
2019-01-04T22:50:10.864Z,101637.00
2019-01-04T22:52:44.932Z,101639.00
2019-01-04T22:55:22.108Z,101640.00
2019-01-04T22:58:10.127Z,101634.00
2019-01-04T23:00:57.428Z,101627.00
2019-01-04T23:03:32.142Z,101609.00
2019-01-04T23:06:18.192Z,101615.00
2019-01-04T23:08:58.290Z,101616.00
2019-01-04T23:11:45.175Z,101590.00
2019-01-04T23:14:16.226Z,101599.00
2019-01-04T23:17:02.536Z,101589.00
2019-01-04T23:19:49.615Z,101586.00
2019-01-04T23:22:43.406Z,101587.00
2019-01-04T23:25:14.431Z,101583.00
2019-01-04T23:28:01.809Z,101568.00
2019-01-04T23:30:41.785Z,101567.00
2019-01-04T23:33:18.703Z,101553.00
2019-01-04T23:35:52.375Z,101548.00
2019-01-04T23:38:39.670Z,101533.00
2019-01-04T23:41:19.254Z,101539.00
2019-01-04T23:44:05.322Z,101530.00
2019-01-04T23:46:36.403Z,101531.00
2019-01-04T23:49:16.721Z,101542.00
2019-01-04T23:52:02.899Z,101543.00
2019-01-04T23:54:34.263Z,101533.00
2019-01-04T23:57:21.149Z,101531.00
